Ginga Lion — H3RU — position and weather

sailwx.info

Track history (hours):
 
Tides and Currents Weather Stations Pressure Air Temp Water Temp Dewpoint Dewpoint Depression Visibility Wind Speed Wind Dir Waves Ship Positions

Ginga Lion

Last reported at 2018-Jul-02 20:41 UTC. Time now 2018-Jul-22 14:25 UTC.
Position N 01°21' E 103°17'.
Warning: this ship's position is 19 days out of date.

Length 160 m; draft 9.3 m.

Type: Tanker. MMSI: 354269000.

Date/timePositionNaut miles runAvg speedWind from/ knotsBaromVisibWave heightAir tempDewpointWater temp
2018-Jul-02 20:41N 01°21' E 103°17'313.6
2018-Jul-02 20:27N 01°19' E 103°19'613.1
2018-Jul-02 19:58N 01°15' E 103°24'613.0
2018-Jul-02 19:30N 01°13' E 103°30'612.4
2018-Jul-02 19:00N 01°11' E 103°36'510.7
2018-Jul-02 18:30N 01°10' E 103°41'5 9.3
2018-Jul-02 17:59N 01°09' E 103°45'510.5
2018-Jul-02 17:30N 01°11' E 103°50'611.3
2018-Jul-02 17:00N 01°14' E 103°55'3 6.3
2018-Jul-02 16:30N 01°17' E 103°55'0 0.0
2018-Jul-02 15:54N 01°17' E 103°55'0 0.0
2018-Jul-02 15:26N 01°17' E 103°55'0 0.0
2018-Jul-02 14:53N 01°17' E 103°55'0 0.0
2018-Jul-02 14:24N 01°17' E 103°55'0 0.0
2018-Jul-02 13:56N 01°17' E 103°55'0 0.0
2018-Jul-02 13:23N 01°17' E 103°55'0 0.0
2018-Jul-02 12:35N 01°17' E 103°55'0 0.0
2018-Jul-02 12:29N 01°17' E 103°55'0 0.0
2018-Jul-02 11:57N 01°17' E 103°55'0 0.0
2018-Jul-02 11:26N 01°17' E 103°55'0 0.0
2018-Jul-02 10:59N 01°17' E 103°55'0 0.1
2018-Jul-02 10:30N 01°17' E 103°55'0 0.2
2018-Jul-02 09:59N 01°17' E 103°55'0 0.0
2018-Jul-02 09:30N 01°17' E 103°55'0 0.0
2018-Jul-02 08:59N 01°17' E 103°55'1 1.3
2018-Jul-02 08:30N 01°17' E 103°55'4 7.2
2018-Jul-02 07:59N 01°16' E 103°59'510.8
2018-Jul-02 07:30N 01°17' E 104°04'2 3.2
2018-Jul-02 06:59N 01°19' E 104°05'0 0.4
2018-Jul-02 06:30N 01°19' E 104°04'0 0.6
2018-Jul-02 05:58N 01°19' E 104°05'3 6.5
2018-Jul-02 05:27N 01°17' E 104°08'510.0
2018-Jul-02 04:59N 01°18' E 104°12'611.2
2018-Jul-02 04:30N 01°18' E 104°18'6 9.7
2018-Jul-02 03:52N 01°22' E 104°22'511.5
2018-Jul-02 03:27N 01°25' E 104°26'  
2018-Jun-27 09:08N 23°03' E 117°39'213.8
2018-Jun-27 09:00N 23°04' E 117°40'714.1
2018-Jun-27 08:28N 23°10' E 117°45'714.1
2018-Jun-27 08:01N 23°15' E 117°49'714.0
2018-Jun-27 07:30N 23°19' E 117°55'714.3
2018-Jun-27 07:00N 23°24' E 118°01'713.8
2018-Jun-27 06:30N 23°28' E 118°07'713.9
2018-Jun-27 06:00N 23°33' E 118°13'714.1
2018-Jun-27 05:30N 23°37' E 118°19'714.3
2018-Jun-27 05:01N 23°42' E 118°25'714.1
2018-Jun-27 04:30N 23°47' E 118°30'713.9
2018-Jun-27 04:00N 23°51' E 118°36'713.9
2018-Jun-27 03:30N 23°55' E 118°42'713.7
2018-Jun-27 03:00N 23°59' E 118°48'713.5
2018-Jun-27 02:30N 24°04' E 118°54'713.3
2018-Jun-27 02:00N 24°08' E 118°59'713.0
2018-Jun-27 01:30N 24°13' E 119°04'713.0
2018-Jun-27 01:00N 24°17' E 119°09'612.7
2018-Jun-27 00:30N 24°22' E 119°14'612.5
2018-Jun-27 00:00N 24°26' E 119°19'612.3
2018-Jun-26 23:30N 24°31' E 119°24'812.2
2018-Jun-26 22:50N 24°37' E 119°30'612.1
2018-Jun-26 22:19N 24°41' E 119°35'812.2
2018-Jun-26 21:38N 24°47' E 119°42'  
2018-Jun-24 07:55N 35°00' E 129°21'  
Track history (hours):
 
Tides and Currents Weather Stations Pressure Air Temp Water Temp Dewpoint Dewpoint Depression Visibility Wind Speed Wind Dir Waves Ship Positions

Ginga Lion

Last reported at 2018-Jul-02 20:41 UTC. Time now 2018-Jul-22 14:25 UTC.
Position N 01°21' E 103°17'.
Warning: this ship's position is 19 days out of date.

Length 160 m; draft 9.3 m.

Type: Tanker. MMSI: 354269000.

Date/timePositionNaut miles runAvg speedWind from/ knotsBaromVisibWave heightAir tempDewpointWater temp
2018-Jul-02 20:41N 01°21' E 103°17'313.6
2018-Jul-02 20:27N 01°19' E 103°19'613.1
2018-Jul-02 19:58N 01°15' E 103°24'613.0
2018-Jul-02 19:30N 01°13' E 103°30'612.4
2018-Jul-02 19:00N 01°11' E 103°36'510.7
2018-Jul-02 18:30N 01°10' E 103°41'5 9.3
2018-Jul-02 17:59N 01°09' E 103°45'510.5
2018-Jul-02 17:30N 01°11' E 103°50'611.3
2018-Jul-02 17:00N 01°14' E 103°55'3 6.3
2018-Jul-02 16:30N 01°17' E 103°55'0 0.0
2018-Jul-02 15:54N 01°17' E 103°55'0 0.0
2018-Jul-02 15:26N 01°17' E 103°55'0 0.0
2018-Jul-02 14:53N 01°17' E 103°55'0 0.0
2018-Jul-02 14:24N 01°17' E 103°55'0 0.0
2018-Jul-02 13:56N 01°17' E 103°55'0 0.0
2018-Jul-02 13:23N 01°17' E 103°55'0 0.0
2018-Jul-02 12:35N 01°17' E 103°55'0 0.0
2018-Jul-02 12:29N 01°17' E 103°55'0 0.0
2018-Jul-02 11:57N 01°17' E 103°55'0 0.0
2018-Jul-02 11:26N 01°17' E 103°55'0 0.0
2018-Jul-02 10:59N 01°17' E 103°55'0 0.1
2018-Jul-02 10:30N 01°17' E 103°55'0 0.2
2018-Jul-02 09:59N 01°17' E 103°55'0 0.0
2018-Jul-02 09:30N 01°17' E 103°55'0 0.0
2018-Jul-02 08:59N 01°17' E 103°55'1 1.3
2018-Jul-02 08:30N 01°17' E 103°55'4 7.2
2018-Jul-02 07:59N 01°16' E 103°59'510.8
2018-Jul-02 07:30N 01°17' E 104°04'2 3.2
2018-Jul-02 06:59N 01°19' E 104°05'0 0.4
2018-Jul-02 06:30N 01°19' E 104°04'0 0.6
2018-Jul-02 05:58N 01°19' E 104°05'3 6.5
2018-Jul-02 05:27N 01°17' E 104°08'510.0
2018-Jul-02 04:59N 01°18' E 104°12'611.2
2018-Jul-02 04:30N 01°18' E 104°18'6 9.7
2018-Jul-02 03:52N 01°22' E 104°22'511.5
2018-Jul-02 03:27N 01°25' E 104°26'  
2018-Jun-27 09:08N 23°03' E 117°39'213.8
2018-Jun-27 09:00N 23°04' E 117°40'714.1
2018-Jun-27 08:28N 23°10' E 117°45'714.1
2018-Jun-27 08:01N 23°15' E 117°49'714.0
2018-Jun-27 07:30N 23°19' E 117°55'714.3
2018-Jun-27 07:00N 23°24' E 118°01'713.8
2018-Jun-27 06:30N 23°28' E 118°07'713.9
2018-Jun-27 06:00N 23°33' E 118°13'714.1
2018-Jun-27 05:30N 23°37' E 118°19'714.3
2018-Jun-27 05:01N 23°42' E 118°25'714.1
2018-Jun-27 04:30N 23°47' E 118°30'713.9
2018-Jun-27 04:00N 23°51' E 118°36'713.9
2018-Jun-27 03:30N 23°55' E 118°42'713.7
2018-Jun-27 03:00N 23°59' E 118°48'713.5
2018-Jun-27 02:30N 24°04' E 118°54'713.3
2018-Jun-27 02:00N 24°08' E 118°59'713.0
2018-Jun-27 01:30N 24°13' E 119°04'713.0
2018-Jun-27 01:00N 24°17' E 119°09'612.7
2018-Jun-27 00:30N 24°22' E 119°14'612.5
2018-Jun-27 00:00N 24°26' E 119°19'612.3
2018-Jun-26 23:30N 24°31' E 119°24'812.2
2018-Jun-26 22:50N 24°37' E 119°30'612.1
2018-Jun-26 22:19N 24°41' E 119°35'812.2
2018-Jun-26 21:38N 24°47' E 119°42'  
2018-Jun-24 07:55N 35°00' E 129°21'  

Dump ship's entire track history